Pays
Station

 

Conditions  météo  pour  Treviso/S. Angelo  -  Italie    Italie

  
26 °C
    
 
 

METAR pour Treviso/S. Angelo :

LIPH 231720Z 04003KT 360V140 CAVOK 26/20 Q1020

 

Voici le bulletin pour Treviso/S. Angelo - Italie.
 
Le bulletin a été fait il y a 24 minutes, à 17:20 UTC .
Le vent soufflait à la vitesse de 1.5 mètres par seconde de Nord-est (040°), variant entre Nord (360°) et Sud-est (140°).
 
La température était de 26 °C, avec un point de rosée à 20 °C.
La température ressentie était de 27 °C.
 
La pression atmosphérique était de 1020 hPa.
L'humidité relative était de 69.6%.
 
Il y avait pas de nuages en-dessous de 1500 mètres et pas de cumulonimbus.
 
La visibilité globale était de supérieure à 10 kilomètres.
 

 
 
 

Pays :   A   B   C   D   E   F   G   H   I   J   K   L   M   N   O   P   Q   R   S   T   U   V   W   Y   Z

 

Partenaires :  Info Météo avec Met'info
Météo Marine avec MeteoMarine.net
Infos Site  |  Infos Légales  |  Crédits  |  Confidentialité
Contactez-nous  |  Ajouter aux favoris
© 2013-2019 METAR - Tous droits réservés